sensor_id;sensor_type;location;lat;lon;timestamp;pressure;altitude;pressure_sealevel;temperature;humidity
6218;BME280;3142;48.206;11.550;2023-03-21T00:00:57;95969.38;;;10.49;64.95
6218;BME280;3142;48.206;11.550;2023-03-21T00:03:24;95959.50;;;10.51;64.93
6218;BME280;3142;48.206;11.550;2023-03-21T00:05:51;95961.31;;;10.51;65.04
6218;BME280;3142;48.206;11.550;2023-03-21T00:08:18;95958.09;;;10.49;65.05
6218;BME280;3142;48.206;11.550;2023-03-21T00:10:45;95958.72;;;10.51;65.31
6218;BME280;3142;48.206;11.550;2023-03-21T00:13:11;95955.47;;;10.49;65.15
6218;BME280;3142;48.206;11.550;2023-03-21T00:15:40;95953.66;;;10.49;65.51
6218;BME280;3142;48.206;11.550;2023-03-21T00:18:15;95958.50;;;10.52;65.23
6218;BME280;3142;48.206;11.550;2023-03-21T00:20:41;95953.47;;;10.51;64.79
6218;BME280;3142;48.206;11.550;2023-03-21T00:23:10;95951.28;;;10.54;65.29
6218;BME280;3142;48.206;11.550;2023-03-21T00:25:37;95950.47;;;10.54;65.17
6218;BME280;3142;48.206;11.550;2023-03-21T00:28:03;95943.81;;;10.51;65.55
6218;BME280;3142;48.206;11.550;2023-03-21T00:30:30;95943.44;;;10.54;65.40
6218;BME280;3142;48.206;11.550;2023-03-21T00:32:57;95945.22;;;10.54;64.87
6218;BME280;3142;48.206;11.550;2023-03-21T00:35:24;95946.25;;;10.53;65.09
6218;BME280;3142;48.206;11.550;2023-03-21T00:37:50;95940.19;;;10.52;65.77
6218;BME280;3142;48.206;11.550;2023-03-21T00:40:17;95948.66;;;10.54;65.55
6218;BME280;3142;48.206;11.550;2023-03-21T00:42:43;95935.41;;;10.56;65.80
6218;BME280;3142;48.206;11.550;2023-03-21T00:45:10;95937.03;;;10.57;65.65
6218;BME280;3142;48.206;11.550;2023-03-21T00:47:36;95935.63;;;10.61;65.09
6218;BME280;3142;48.206;11.550;2023-03-21T00:50:05;95933.00;;;10.61;65.46
6218;BME280;3142;48.206;11.550;2023-03-21T00:52:31;95932.22;;;10.60;65.40
6218;BME280;3142;48.206;11.550;2023-03-21T00:54:58;95924.38;;;10.67;65.20
6218;BME280;3142;48.206;11.550;2023-03-21T00:57:25;95919.94;;;10.67;65.43
6218;BME280;3142;48.206;11.550;2023-03-21T00:59:52;95916.72;;;10.65;65.44
6218;BME280;3142;48.206;11.550;2023-03-21T01:02:18;95921.75;;;10.67;65.52
6218;BME280;3142;48.206;11.550;2023-03-21T01:04:47;95913.50;;;10.63;65.33
6218;BME280;3142;48.206;11.550;2023-03-21T01:07:14;95910.06;;;10.63;65.61
6218;BME280;3142;48.206;11.550;2023-03-21T01:09:41;95908.25;;;10.57;66.23
6218;BME280;3142;48.206;11.550;2023-03-21T01:12:07;95912.28;;;10.59;65.68
6218;BME280;3142;48.206;11.550;2023-03-21T01:14:34;95904.22;;;10.61;65.61
6218;BME280;3142;48.206;11.550;2023-03-21T01:17:01;95909.25;;;10.62;65.80
6218;BME280;3142;48.206;11.550;2023-03-21T01:19:27;95905.84;;;10.62;66.09
6218;BME280;3142;48.206;11.550;2023-03-21T01:21:54;95902.22;;;10.63;65.74
6218;BME280;3142;48.206;11.550;2023-03-21T01:24:22;95900.75;;;10.54;66.34
6218;BME280;3142;48.206;11.550;2023-03-21T01:26:49;95902.00;;;10.58;65.90
6218;BME280;3142;48.206;11.550;2023-03-21T01:29:15;95906.44;;;10.57;66.21
6218;BME280;3142;48.206;11.550;2023-03-21T01:31:42;95901.00;;;10.59;66.60
6218;BME280;3142;48.206;11.550;2023-03-21T01:34:08;95905.44;;;10.58;66.29
6218;BME280;3142;48.206;11.550;2023-03-21T01:36:35;95903.00;;;10.57;66.48
6218;BME280;3142;48.206;11.550;2023-03-21T01:39:02;95895.97;;;10.57;66.67
6218;BME280;3142;48.206;11.550;2023-03-21T01:41:33;95895.97;;;10.57;66.83
6218;BME280;3142;48.206;11.550;2023-03-21T01:44:00;95900.59;;;10.55;66.59
6218;BME280;3142;48.206;11.550;2023-03-21T01:46:35;95895.38;;;10.62;67.09
6218;BME280;3142;48.206;11.550;2023-03-21T01:49:06;95893.78;;;10.61;66.94
6218;BME280;3142;48.206;11.550;2023-03-21T01:51:36;95890.16;;;10.62;67.11
6218;BME280;3142;48.206;11.550;2023-03-21T01:54:03;95883.50;;;10.66;67.21
6218;BME280;3142;48.206;11.550;2023-03-21T01:56:34;95881.34;;;10.70;67.04
6218;BME280;3142;48.206;11.550;2023-03-21T01:59:05;95874.28;;;10.70;66.82
6218;BME280;3142;48.206;11.550;2023-03-21T02:01:33;95875.28;;;10.69;66.70
6218;BME280;3142;48.206;11.550;2023-03-21T02:04:03;95875.47;;;10.67;66.97
6218;BME280;3142;48.206;11.550;2023-03-21T02:06:37;95871.69;;;10.70;66.76
6218;BME280;3142;48.206;11.550;2023-03-21T02:09:08;95870.88;;;10.70;67.49
6218;BME280;3142;48.206;11.550;2023-03-21T02:11:38;95868.06;;;10.71;66.63
6218;BME280;3142;48.206;11.550;2023-03-21T02:14:05;95873.28;;;10.71;66.57
6218;BME280;3142;48.206;11.550;2023-03-21T02:16:43;95871.03;;;10.68;66.72
6218;BME280;3142;48.206;11.550;2023-03-21T02:19:28;95872.47;;;10.71;66.84
6218;BME280;3142;48.206;11.550;2023-03-21T02:25:13;95876.91;;;10.70;67.04
6218;BME280;3142;48.206;11.550;2023-03-21T02:28:07;95870.63;;;10.64;67.77
6218;BME280;3142;48.206;11.550;2023-03-21T02:30:47;95868.81;;;10.65;67.35
6218;BME280;3142;48.206;11.550;2023-03-21T02:33:46;95869.88;;;10.71;67.67
6218;BME280;3142;48.206;11.550;2023-03-21T02:36:26;95874.47;;;10.68;67.56
6218;BME280;3142;48.206;11.550;2023-03-21T02:39:00;95878.72;;;10.70;67.64
6218;BME280;3142;48.206;11.550;2023-03-21T02:41:37;95874.28;;;10.70;67.78
6218;BME280;3142;48.206;11.550;2023-03-21T02:44:09;95874.09;;;10.72;67.15
6218;BME280;3142;48.206;11.550;2023-03-21T02:46:44;95873.09;;;10.73;67.62
6218;BME280;3142;48.206;11.550;2023-03-21T02:49:16;95875.09;;;10.77;67.49
6218;BME280;3142;48.206;11.550;2023-03-21T02:51:48;95878.13;;;10.74;67.44
6218;BME280;3142;48.206;11.550;2023-03-21T02:54:18;95873.28;;;10.71;67.33
6218;BME280;3142;48.206;11.550;2023-03-21T02:56:49;95867.63;;;10.67;67.46
6218;BME280;3142;48.206;11.550;2023-03-21T02:59:18;95866.00;;;10.66;67.73
6218;BME280;3142;48.206;11.550;2023-03-21T03:01:49;95878.28;;;10.66;67.73
6218;BME280;3142;48.206;11.550;2023-03-21T03:04:17;95869.22;;;10.62;67.26
6218;BME280;3142;48.206;11.550;2023-03-21T03:06:54;95877.06;;;10.62;67.81
6218;BME280;3142;48.206;11.550;2023-03-21T03:09:32;95869.81;;;10.64;67.58
6218;BME280;3142;48.206;11.550;2023-03-21T03:12:11;95865.78;;;10.61;67.36
6218;BME280;3142;48.206;11.550;2023-03-21T03:14:49;95865.00;;;10.61;67.66
6218;BME280;3142;48.206;11.550;2023-03-21T03:17:22;95876.03;;;10.56;67.61
6218;BME280;3142;48.206;11.550;2023-03-21T03:20:02;95867.19;;;10.57;68.07
6218;BME280;3142;48.206;11.550;2023-03-21T03:22:41;95856.94;;;10.56;67.67
6218;BME280;3142;48.206;11.550;2023-03-21T03:25:19;95862.53;;;10.53;68.16
6218;BME280;3142;48.206;11.550;2023-03-21T03:27:48;95856.88;;;10.49;67.81
6218;BME280;3142;48.206;11.550;2023-03-21T03:30:16;95859.69;;;10.48;67.26
6218;BME280;3142;48.206;11.550;2023-03-21T03:32:45;95856.69;;;10.51;68.01
6218;BME280;3142;48.206;11.550;2023-03-21T03:35:15;95852.25;;;10.51;67.97
6218;BME280;3142;48.206;11.550;2023-03-21T03:37:44;95855.06;;;10.50;68.03
6218;BME280;3142;48.206;11.550;2023-03-21T03:40:17;95859.50;;;10.49;68.16
6218;BME280;3142;48.206;11.550;2023-03-21T03:42:48;95858.50;;;10.50;68.07
6218;BME280;3142;48.206;11.550;2023-03-21T03:45:17;95860.91;;;10.52;68.09
6218;BME280;3142;48.206;11.550;2023-03-21T03:47:48;95859.31;;;10.51;68.35
6218;BME280;3142;48.206;11.550;2023-03-21T03:50:19;95863.72;;;10.50;68.56
6218;BME280;3142;48.206;11.550;2023-03-21T03:52:52;95860.91;;;10.52;68.28
6218;BME280;3142;48.206;11.550;2023-03-21T03:55:22;95868.75;;;10.52;68.32
6218;BME280;3142;48.206;11.550;2023-03-21T03:57:51;95860.31;;;10.50;68.28
6218;BME280;3142;48.206;11.550;2023-03-21T04:00:19;95860.09;;;10.51;68.28
6218;BME280;3142;48.206;11.550;2023-03-21T04:02:45;95849.63;;;10.45;68.58
6218;BME280;3142;48.206;11.550;2023-03-21T04:05:12;95855.28;;;10.48;68.45
6218;BME280;3142;48.206;11.550;2023-03-21T04:07:38;95849.44;;;10.46;68.46
6218;BME280;3142;48.206;11.550;2023-03-21T04:10:06;95860.69;;;10.47;68.67
6218;BME280;3142;48.206;11.550;2023-03-21T04:12:34;95847.81;;;10.45;68.77
6218;BME280;3142;48.206;11.550;2023-03-21T04:15:00;95848.03;;;10.44;68.30
6218;BME280;3142;48.206;11.550;2023-03-21T04:17:26;95851.03;;;10.47;68.41
6218;BME280;3142;48.206;11.550;2023-03-21T04:19:53;95848.03;;;10.44;69.08
6218;BME280;3142;48.206;11.550;2023-03-21T04:22:19;95850.44;;;10.52;68.63
6218;BME280;3142;48.206;11.550;2023-03-21T04:24:46;95859.50;;;10.49;68.81
6218;BME280;3142;48.206;11.550;2023-03-21T04:27:12;95849.66;;;10.51;68.73
6218;BME280;3142;48.206;11.550;2023-03-21T04:29:40;95849.84;;;10.50;68.47
6218;BME280;3142;48.206;11.550;2023-03-21T04:32:07;95849.66;;;10.51;68.62
6218;BME280;3142;48.206;11.550;2023-03-21T04:34:40;95843.59;;;10.51;68.63
6218;BME280;3142;48.206;11.550;2023-03-21T04:37:08;95836.97;;;10.48;68.76
6218;BME280;3142;48.206;11.550;2023-03-21T04:39:36;95847.03;;;10.45;68.92
6218;BME280;3142;48.206;11.550;2023-03-21T04:42:02;95841.34;;;10.41;68.85
6218;BME280;3142;48.206;11.550;2023-03-21T04:44:29;95832.47;;;10.35;68.43
6218;BME280;3142;48.206;11.550;2023-03-21T04:46:57;95843.34;;;10.32;68.70
6218;BME280;3142;48.206;11.550;2023-03-21T04:49:23;95849.38;;;10.39;68.99
6218;BME280;3142;48.206;11.550;2023-03-21T04:51:50;95845.78;;;10.41;68.61
6218;BME280;3142;48.206;11.550;2023-03-21T04:54:16;95853.22;;;10.37;68.73
6218;BME280;3142;48.206;11.550;2023-03-21T04:56:43;95844.16;;;10.39;68.81
6218;BME280;3142;48.206;11.550;2023-03-21T04:59:11;95842.34;;;10.40;69.21
6218;BME280;3142;48.206;11.550;2023-03-21T05:01:38;95836.91;;;10.35;69.47
6218;BME280;3142;48.206;11.550;2023-03-21T05:04:10;95851.19;;;10.39;69.29
6218;BME280;3142;48.206;11.550;2023-03-21T05:06:36;95841.34;;;10.41;68.77
6218;BME280;3142;48.206;11.550;2023-03-21T05:09:03;95838.31;;;10.37;68.66
6218;BME280;3142;48.206;11.550;2023-03-21T05:11:31;95837.94;;;10.41;68.84
6218;BME280;3142;48.206;11.550;2023-03-21T05:14:00;95829.91;;;10.42;68.81
6218;BME280;3142;48.206;11.550;2023-03-21T05:16:26;95838.13;;;10.39;68.38
6218;BME280;3142;48.206;11.550;2023-03-21T05:18:54;95840.53;;;10.41;68.65
6218;BME280;3142;48.206;11.550;2023-03-21T05:21:25;95843.78;;;10.43;68.88
6218;BME280;3142;48.206;11.550;2023-03-21T05:23:53;95846.97;;;10.38;68.45
6218;BME280;3142;48.206;11.550;2023-03-21T05:26:23;95839.72;;;10.33;69.44
6218;BME280;3142;48.206;11.550;2023-03-21T05:28:49;95837.53;;;10.37;69.53
6218;BME280;3142;48.206;11.550;2023-03-21T05:31:17;95841.19;;;10.43;69.79
6218;BME280;3142;48.206;11.550;2023-03-21T05:33:45;95838.97;;;10.46;70.13
6218;BME280;3142;48.206;11.550;2023-03-21T05:36:12;95841.81;;;10.51;69.65
6218;BME280;3142;48.206;11.550;2023-03-21T05:38:40;95841.59;;;10.53;69.08
6218;BME280;3142;48.206;11.550;2023-03-21T05:41:10;95837.97;;;10.54;68.95
6218;BME280;3142;48.206;11.550;2023-03-21T05:43:36;95840.19;;;10.50;68.64
6218;BME280;3142;48.206;11.550;2023-03-21T05:46:02;95843.41;;;10.52;68.39
6218;BME280;3142;48.206;11.550;2023-03-21T05:48:29;95851.66;;;10.49;68.57
6218;BME280;3142;48.206;11.550;2023-03-21T05:50:56;95851.66;;;10.49;68.67
6218;BME280;3142;48.206;11.550;2023-03-21T05:53:22;95855.06;;;10.50;68.45
6218;BME280;3142;48.206;11.550;2023-03-21T05:55:50;95854.69;;;10.53;68.88
6218;BME280;3142;48.206;11.550;2023-03-21T05:58:16;95854.28;;;10.49;68.77
6218;BME280;3142;48.206;11.550;2023-03-21T06:00:43;95860.69;;;10.47;68.87
6218;BME280;3142;48.206;11.550;2023-03-21T06:03:09;95867.94;;;10.45;69.05
6218;BME280;3142;48.206;11.550;2023-03-21T06:05:35;95863.91;;;10.42;69.10
6218;BME280;3142;48.206;11.550;2023-03-21T06:08:02;95868.94;;;10.44;68.65
6218;BME280;3142;48.206;11.550;2023-03-21T06:10:28;95854.28;;;10.49;69.02
6218;BME280;3142;48.206;11.550;2023-03-21T06:12:56;95877.00;;;10.49;68.40
6218;BME280;3142;48.206;11.550;2023-03-21T06:15:23;95871.16;;;10.47;69.20
6218;BME280;3142;48.206;11.550;2023-03-21T06:17:50;95877.06;;;10.55;69.09
6218;BME280;3142;48.206;11.550;2023-03-21T06:20:17;95866.59;;;10.55;69.40
6218;BME280;3142;48.206;11.550;2023-03-21T06:22:43;95868.00;;;10.58;69.64
6218;BME280;3142;48.206;11.550;2023-03-21T06:25:10;95865.00;;;10.67;69.17
6218;BME280;3142;48.206;11.550;2023-03-21T06:27:37;95870.47;;;10.73;69.42
6218;BME280;3142;48.206;11.550;2023-03-21T06:30:05;95872.09;;;10.74;69.31
6218;BME280;3142;48.206;11.550;2023-03-21T06:32:32;95869.06;;;10.77;69.30
6218;BME280;3142;48.206;11.550;2023-03-21T06:34:59;95873.53;;;10.83;69.24
6218;BME280;3142;48.206;11.550;2023-03-21T06:37:26;95875.31;;;10.82;69.14
6218;BME280;3142;48.206;11.550;2023-03-21T06:39:52;95868.09;;;10.84;68.96
6218;BME280;3142;48.206;11.550;2023-03-21T06:42:18;95879.56;;;10.83;68.69
6218;BME280;3142;48.206;11.550;2023-03-21T06:44:45;95873.53;;;10.83;68.78
6218;BME280;3142;48.206;11.550;2023-03-21T06:47:13;95876.75;;;10.85;68.51
6218;BME280;3142;48.206;11.550;2023-03-21T06:49:39;95883.19;;;10.89;68.31
6218;BME280;3142;48.206;11.550;2023-03-21T06:52:07;95877.75;;;10.90;68.34
6218;BME280;3142;48.206;11.550;2023-03-21T06:54:34;95882.22;;;10.96;68.28
6218;BME280;3142;48.206;11.550;2023-03-21T06:57:01;95880.22;;;10.98;67.65
6218;BME280;3142;48.206;11.550;2023-03-21T06:59:27;95880.22;;;10.98;67.84
6218;BME280;3142;48.206;11.550;2023-03-21T07:01:54;95877.97;;;10.95;68.07
6218;BME280;3142;48.206;11.550;2023-03-21T07:04:22;95884.00;;;10.89;68.55
6218;BME280;3142;48.206;11.550;2023-03-21T07:06:48;95879.41;;;10.98;68.59
6218;BME280;3142;48.206;11.550;2023-03-21T07:09:15;95874.97;;;11.05;68.11
6218;BME280;3142;48.206;11.550;2023-03-21T07:11:42;95871.16;;;11.08;68.18
6218;BME280;3142;48.206;11.550;2023-03-21T07:14:09;95882.63;;;11.07;68.19
6218;BME280;3142;48.206;11.550;2023-03-21T07:16:35;95875.22;;;11.17;67.39
6218;BME280;3142;48.206;11.550;2023-03-21T07:19:02;95877.81;;;11.23;67.07
6218;BME280;3142;48.206;11.550;2023-03-21T07:21:29;95874.81;;;11.20;67.33
6218;BME280;3142;48.206;11.550;2023-03-21T07:23:56;95872.22;;;11.26;66.31
6218;BME280;3142;48.206;11.550;2023-03-21T07:26:23;95876.84;;;11.24;66.29
6218;BME280;3142;48.206;11.550;2023-03-21T07:28:49;95878.84;;;11.29;66.23
6218;BME280;3142;48.206;11.550;2023-03-21T07:31:16;95880.47;;;11.30;65.90
6218;BME280;3142;48.206;11.550;2023-03-21T07:33:43;95874.81;;;11.33;65.51
6218;BME280;3142;48.206;11.550;2023-03-21T07:36:12;95880.09;;;11.40;64.93
6218;BME280;3142;48.206;11.550;2023-03-21T07:38:40;95883.50;;;11.40;64.69
6218;BME280;3142;48.206;11.550;2023-03-21T07:41:07;95878.84;;;11.36;64.85
6218;BME280;3142;48.206;11.550;2023-03-21T07:43:34;95880.91;;;11.40;64.43
6218;BME280;3142;48.206;11.550;2023-03-21T07:46:01;95885.09;;;11.35;64.88
6218;BME280;3142;48.206;11.550;2023-03-21T07:48:27;95886.50;;;11.37;64.76
6218;BME280;3142;48.206;11.550;2023-03-21T07:50:54;95881.91;;;11.46;65.38
6218;BME280;3142;48.206;11.550;2023-03-21T07:53:21;95882.91;;;11.58;64.71
6218;BME280;3142;48.206;11.550;2023-03-21T07:55:53;95887.56;;;11.69;64.32
6218;BME280;3142;48.206;11.550;2023-03-21T07:58:20;95878.88;;;11.75;63.28
6218;BME280;3142;48.206;11.550;2023-03-21T08:00:47;95880.28;;;11.78;63.86
6218;BME280;3142;48.206;11.550;2023-03-21T08:03:13;95883.56;;;11.80;63.58
6218;BME280;3142;48.206;11.550;2023-03-21T08:05:40;95877.50;;;11.86;63.24
6218;BME280;3142;48.206;11.550;2023-03-21T08:08:08;95875.88;;;11.85;63.54
6218;BME280;3142;48.206;11.550;2023-03-21T08:10:35;95871.03;;;11.89;63.68
6218;BME280;3142;48.206;11.550;2023-03-21T08:13:03;95881.13;;;11.85;63.24
6218;BME280;3142;48.206;11.550;2023-03-21T08:15:29;95882.13;;;11.91;63.83
6218;BME280;3142;48.206;11.550;2023-03-21T08:17:57;95876.47;;;12.00;62.94
6218;BME280;3142;48.206;11.550;2023-03-21T08:20:24;95878.91;;;11.95;62.98
6218;BME280;3142;48.206;11.550;2023-03-21T08:22:50;95880.94;;;11.93;63.42
6218;BME280;3142;48.206;11.550;2023-03-21T08:25:18;95878.69;;;11.97;63.78
6218;BME280;3142;48.206;11.550;2023-03-21T08:27:45;95880.28;;;12.11;63.38
6218;BME280;3142;48.206;11.550;2023-03-21T08:30:17;95876.25;;;12.08;62.92
6218;BME280;3142;48.206;11.550;2023-03-21T08:32:44;95875.03;;;12.11;62.81
6218;BME280;3142;48.206;11.550;2023-03-21T08:35:12;95873.63;;;12.15;63.34
6218;BME280;3142;48.206;11.550;2023-03-21T08:37:40;95874.00;;;12.25;62.58
6218;BME280;3142;48.206;11.550;2023-03-21T08:40:10;95870.97;;;12.28;62.46
6218;BME280;3142;48.206;11.550;2023-03-21T08:42:38;95864.09;;;12.27;62.50
6218;BME280;3142;48.206;11.550;2023-03-21T08:45:05;95863.72;;;12.24;62.22
6218;BME280;3142;48.206;11.550;2023-03-21T08:47:33;95868.34;;;12.28;62.46
6218;BME280;3142;48.206;11.550;2023-03-21T08:50:00;95863.69;;;12.30;62.75
6218;BME280;3142;48.206;11.550;2023-03-21T08:52:27;95865.09;;;12.39;62.43
6218;BME280;3142;48.206;11.550;2023-03-21T08:54:53;95856.78;;;12.42;60.53
6218;BME280;3142;48.206;11.550;2023-03-21T08:57:20;95859.41;;;12.42;60.09
6218;BME280;3142;48.206;11.550;2023-03-21T08:59:46;95857.38;;;12.44;60.57
6218;BME280;3142;48.206;11.550;2023-03-21T09:02:14;95855.34;;;12.46;59.99
6218;BME280;3142;48.206;11.550;2023-03-21T09:04:42;95862.84;;;12.50;59.67
6218;BME280;3142;48.206;11.550;2023-03-21T09:07:09;95853.75;;;12.52;59.59
6218;BME280;3142;48.206;11.550;2023-03-21T09:09:36;95854.13;;;12.62;59.90
6218;BME280;3142;48.206;11.550;2023-03-21T09:12:03;95849.63;;;12.69;59.46
6218;BME280;3142;48.206;11.550;2023-03-21T09:14:30;95848.59;;;12.70;59.40
6218;BME280;3142;48.206;11.550;2023-03-21T09:16:57;95851.81;;;12.79;58.92
6218;BME280;3142;48.206;11.550;2023-03-21T09:19:23;95857.81;;;12.93;58.88
6218;BME280;3142;48.206;11.550;2023-03-21T09:21:51;95843.41;;;13.02;58.80
6218;BME280;3142;48.206;11.550;2023-03-21T09:24:20;95849.56;;;13.14;56.76
6218;BME280;3142;48.206;11.550;2023-03-21T09:26:46;95852.41;;;13.13;57.62
6218;BME280;3142;48.206;11.550;2023-03-21T09:29:15;95847.16;;;13.19;56.66
6218;BME280;3142;48.206;11.550;2023-03-21T09:31:43;95845.13;;;13.21;55.95
6218;BME280;3142;48.206;11.550;2023-03-21T09:34:10;95838.06;;;13.22;56.06
6218;BME280;3142;48.206;11.550;2023-03-21T09:36:38;95840.25;;;13.25;56.20
6218;BME280;3142;48.206;11.550;2023-03-21T09:39:07;95843.69;;;13.25;55.98
6218;BME280;3142;48.206;11.550;2023-03-21T09:41:50;95839.63;;;13.29;54.58
6218;BME280;3142;48.206;11.550;2023-03-21T09:44:29;95840.03;;;13.26;54.93
6218;BME280;3142;48.206;11.550;2023-03-21T09:47:02;95842.25;;;13.29;54.67
6218;BME280;3142;48.206;11.550;2023-03-21T09:49:33;95838.78;;;13.29;55.54
6218;BME280;3142;48.206;11.550;2023-03-21T09:52:05;95837.19;;;13.28;55.02
6218;BME280;3142;48.206;11.550;2023-03-21T09:54:40;95849.16;;;13.24;54.86
6218;BME280;3142;48.206;11.550;2023-03-21T09:57:15;95836.16;;;13.29;54.51
6218;BME280;3142;48.206;11.550;2023-03-21T09:59:47;95837.91;;;13.42;54.92
6218;BME280;3142;48.206;11.550;2023-03-21T10:02:25;95842.47;;;13.53;53.82
6218;BME280;3142;48.206;11.550;2023-03-21T10:04:57;95836.41;;;13.77;53.74
6218;BME280;3142;48.206;11.550;2023-03-21T10:07:23;95827.59;;;13.90;53.68
6218;BME280;3142;48.206;11.550;2023-03-21T10:09:54;95831.75;;;13.98;52.67
6218;BME280;3142;48.206;11.550;2023-03-21T10:12:22;95830.41;;;14.32;52.83
6218;BME280;3142;48.206;11.550;2023-03-21T10:14:50;95824.63;;;14.60;51.37
6218;BME280;3142;48.206;11.550;2023-03-21T10:17:24;95824.00;;;14.76;51.87
6218;BME280;3142;48.206;11.550;2023-03-21T10:19:56;95817.25;;;14.98;50.43
6218;BME280;3142;48.206;11.550;2023-03-21T10:22:25;95813.19;;;15.26;50.10
6218;BME280;3142;48.206;11.550;2023-03-21T10:24:51;95813.09;;;15.44;49.85
6218;BME280;3142;48.206;11.550;2023-03-21T10:27:20;95816.34;;;15.58;49.65
6218;BME280;3142;48.206;11.550;2023-03-21T10:29:46;95811.09;;;15.81;48.75
6218;BME280;3142;48.206;11.550;2023-03-21T10:32:17;95804.06;;;15.52;48.43
6218;BME280;3142;48.206;11.550;2023-03-21T10:34:47;95808.97;;;15.48;48.50
6218;BME280;3142;48.206;11.550;2023-03-21T10:37:14;95804.22;;;15.68;48.11
6218;BME280;3142;48.206;11.550;2023-03-21T10:39:42;95804.91;;;15.76;47.93
6218;BME280;3142;48.206;11.550;2023-03-21T10:42:17;95798.81;;;15.87;48.11
6218;BME280;3142;48.206;11.550;2023-03-21T10:44:48;95796.31;;;16.04;47.63
6218;BME280;3142;48.206;11.550;2023-03-21T10:47:19;95788.94;;;16.17;47.14
6218;BME280;3142;48.206;11.550;2023-03-21T10:49:46;95784.75;;;16.45;46.68
6218;BME280;3142;48.206;11.550;2023-03-21T10:52:18;95780.00;;;16.58;46.73
6218;BME280;3142;48.206;11.550;2023-03-21T10:54:44;95782.19;;;16.90;45.94
6218;BME280;3142;48.206;11.550;2023-03-21T10:57:14;95779.56;;;17.07;45.39
6218;BME280;3142;48.206;11.550;2023-03-21T10:59:44;95780.06;;;17.37;44.96
6218;BME280;3142;48.206;11.550;2023-03-21T11:02:16;95781.69;;;17.55;44.37
6218;BME280;3142;48.206;11.550;2023-03-21T11:04:44;95780.31;;;17.86;44.54
6218;BME280;3142;48.206;11.550;2023-03-21T11:07:13;95777.59;;;18.20;44.07
6218;BME280;3142;48.206;11.550;2023-03-21T11:09:45;95777.47;;;18.75;42.36
6218;BME280;3142;48.206;11.550;2023-03-21T11:12:13;95767.53;;;18.87;42.05
6218;BME280;3142;48.206;11.550;2023-03-21T11:14:42;95768.91;;;19.54;40.74
6218;BME280;3142;48.206;11.550;2023-03-21T11:17:21;95770.41;;;19.40;41.01
6218;BME280;3142;48.206;11.550;2023-03-21T11:19:48;95764.28;;;19.71;40.23
6218;BME280;3142;48.206;11.550;2023-03-21T11:22:17;95760.72;;;19.93;39.70
6218;BME280;3142;48.206;11.550;2023-03-21T11:24:48;95766.53;;;19.52;39.19
6218;BME280;3142;48.206;11.550;2023-03-21T11:27:15;95757.69;;;19.10;39.74
6218;BME280;3142;48.206;11.550;2023-03-21T11:29:45;95763.75;;;19.05;40.35
6218;BME280;3142;48.206;11.550;2023-03-21T11:32:21;95750.13;;;19.29;40.68
6218;BME280;3142;48.206;11.550;2023-03-21T11:34:49;95744.59;;;19.62;39.95
6218;BME280;3142;48.206;11.550;2023-03-21T11:37:20;95738.00;;;20.22;39.30
6218;BME280;3142;48.206;11.550;2023-03-21T11:39:54;95734.28;;;20.18;38.99
6218;BME280;3142;48.206;11.550;2023-03-21T11:42:29;95723.56;;;20.60;38.28
6218;BME280;3142;48.206;11.550;2023-03-21T11:45:02;95728.56;;;20.52;37.87
6218;BME280;3142;48.206;11.550;2023-03-21T11:47:31;95722.25;;;20.73;37.48
6218;BME280;3142;48.206;11.550;2023-03-21T11:49:57;95716.44;;;20.91;37.66
6218;BME280;3142;48.206;11.550;2023-03-21T11:52:31;95710.63;;;21.25;36.36
6218;BME280;3142;48.206;11.550;2023-03-21T11:57:59;95705.22;;;21.86;35.68
6218;BME280;3142;48.206;11.550;2023-03-21T12:00:34;95700.09;;;22.05;35.29
6218;BME280;3142;48.206;11.550;2023-03-21T12:03:37;95701.81;;;21.19;35.18
6218;BME280;3142;48.206;11.550;2023-03-21T12:06:13;95691.66;;;20.81;36.69
6218;BME280;3142;48.206;11.550;2023-03-21T12:08:49;95694.56;;;20.59;37.26
6218;BME280;3142;48.206;11.550;2023-03-21T12:11:23;95678.88;;;20.67;37.24
6218;BME280;3142;48.206;11.550;2023-03-21T12:14:02;95678.41;;;20.86;37.18
6218;BME280;3142;48.206;11.550;2023-03-21T12:16:40;95672.00;;;20.92;37.33
6218;BME280;3142;48.206;11.550;2023-03-21T12:19:20;95670.69;;;20.84;36.83
6218;BME280;3142;48.206;11.550;2023-03-21T12:21:59;95662.16;;;20.77;37.61
6218;BME280;3142;48.206;11.550;2023-03-21T12:24:32;95665.09;;;20.76;37.48
6218;BME280;3142;48.206;11.550;2023-03-21T12:27:09;95661.06;;;20.63;36.50
6218;BME280;3142;48.206;11.550;2023-03-21T12:29:54;95659.09;;;20.28;36.60
6218;BME280;3142;48.206;11.550;2023-03-21T12:32:35;95658.56;;;20.16;37.35
6218;BME280;3142;48.206;11.550;2023-03-21T12:35:19;95659.19;;;19.75;37.84
6218;BME280;3142;48.206;11.550;2023-03-21T12:37:56;95664.41;;;19.60;37.84
6218;BME280;3142;48.206;11.550;2023-03-21T12:40:36;95666.94;;;19.45;37.41
6218;BME280;3142;48.206;11.550;2023-03-21T12:43:21;95663.97;;;19.36;38.38
6218;BME280;3142;48.206;11.550;2023-03-21T12:45:53;95661.06;;;19.38;38.88
6218;BME280;3142;48.206;11.550;2023-03-21T12:48:35;95659.72;;;19.35;38.82
6218;BME280;3142;48.206;11.550;2023-03-21T12:51:07;95657.53;;;19.27;38.96
6218;BME280;3142;48.206;11.550;2023-03-21T12:53:43;95653.56;;;19.30;37.51
6218;BME280;3142;48.206;11.550;2023-03-21T12:56:18;95649.25;;;19.18;38.59
6218;BME280;3142;48.206;11.550;2023-03-21T12:58:48;95643.22;;;19.28;39.18
6218;BME280;3142;48.206;11.550;2023-03-21T13:01:18;95638.91;;;19.59;38.89
6218;BME280;3142;48.206;11.550;2023-03-21T13:03:50;95633.44;;;19.76;38.41
6218;BME280;3142;48.206;11.550;2023-03-21T13:06:21;95632.38;;;19.87;38.31
6218;BME280;3142;48.206;11.550;2023-03-21T13:08:52;95625.97;;;19.73;37.78
6218;BME280;3142;48.206;11.550;2023-03-21T13:11:24;95620.91;;;19.66;38.01
6218;BME280;3142;48.206;11.550;2023-03-21T13:13:56;95613.63;;;19.51;37.29
6218;BME280;3142;48.206;11.550;2023-03-21T13:16:28;95616.47;;;19.35;38.08
6218;BME280;3142;48.206;11.550;2023-03-21T13:19:03;95615.94;;;19.33;38.66
6218;BME280;3142;48.206;11.550;2023-03-21T13:21:49;95605.78;;;19.24;38.07
6218;BME280;3142;48.206;11.550;2023-03-21T13:24:27;95611.56;;;19.16;38.52
6218;BME280;3142;48.206;11.550;2023-03-21T13:27:01;95602.53;;;19.12;38.41
6218;BME280;3142;48.206;11.550;2023-03-21T13:29:32;95606.69;;;19.03;38.21